Time;durP1;ratioP1;P1;durP2;ratioP2;P2;SDS_P1;SDS_P2;PMS_P1;PMS_P2;Temp;Humidity;BMP_temperature;BMP_pressure;BME280_temperature;BME280_humidity;BME280_pressure;Samples;Min_cycle;Max_cycle;Signal;HPM_P1;HPM_P2
2022/01/15 00:00:24;;;;;;;13.77;7.70;;;6.60;99.90;;;;;;6178633;23;20067;-81
2022/01/15 00:02:51;;;;;;;11.30;7.13;;;6.50;99.90;;;;;;6179118;23;20013;-81
2022/01/15 00:05:16;;;;;;;12.30;6.75;;;6.50;99.90;;;;;;6178621;23;20009;-81
2022/01/15 00:07:47;;;;;;;12.68;6.75;;;6.50;99.90;;;;;;6178525;23;20112;-80
2022/01/15 00:10:12;;;;;;;10.45;5.55;;;6.50;99.90;;;;;;6175988;23;20048;-81
2022/01/15 00:12:41;;;;;;;8.63;5.07;;;6.40;99.90;;;;;;6153165;23;20083;-81
2022/01/15 00:15:11;;;;;;;9.27;4.30;;;6.50;99.90;;;;;;6179162;23;20013;-80
2022/01/15 00:20:19;;;;;;;6.30;4.28;;;6.50;99.90;;;;;;6180970;23;20027;-80
2022/01/15 00:22:46;;;;;;;6.28;4.10;;;6.50;99.90;;;;;;6153925;23;20017;-80
2022/01/15 00:25:12;;;;;;;7.28;4.28;;;6.60;99.90;;;;;;6179120;23;20013;-81
2022/01/15 00:27:39;;;;;;;7.03;4.25;;;6.50;99.90;;;;;;6180229;23;20013;-81
2022/01/15 00:30:06;;;;;;;5.95;3.78;;;6.50;99.90;;;;;;6155437;23;20115;-81
2022/01/15 00:32:32;;;;;;;6.78;3.50;;;6.40;99.90;;;;;;6154680;23;20441;-81
2022/01/15 00:34:58;;;;;;;7.90;4.22;;;6.60;99.90;;;;;;6178034;23;20027;-81
2022/01/15 00:37:24;;;;;;;6.63;4.45;;;6.40;99.90;;;;;;6177814;23;20116;-80
2022/01/15 00:39:50;;;;;;;8.50;5.60;;;6.50;99.90;;;;;;6153784;23;20049;-81
2022/01/15 00:42:15;;;;;;;10.77;6.43;;;6.50;99.90;;;;;;6176885;23;20025;-81
2022/01/15 00:44:42;;;;;;;12.68;6.60;;;6.40;99.90;;;;;;6179155;23;20096;-80
2022/01/15 00:47:08;;;;;;;11.82;6.68;;;6.40;99.90;;;;;;6154561;23;20094;-81
2022/01/15 00:49:33;;;;;;;9.30;5.90;;;6.40;99.90;;;;;;6179540;23;20511;-81
2022/01/15 00:51:59;;;;;;;10.77;6.50;;;6.40;99.90;;;;;;6180504;23;20016;-80
2022/01/15 00:54:24;;;;;;;15.88;7.20;;;6.40;99.90;;;;;;6154442;23;20087;-80
2022/01/15 00:56:50;;;;;;;11.00;6.35;;;6.30;99.90;;;;;;6156351;23;20033;-81
2022/01/15 00:59:18;;;;;;;6.00;3.90;;;6.40;99.90;;;;;;6180586;23;20120;-80
2022/01/15 01:01:44;;;;;;;7.03;4.30;;;6.20;99.90;;;;;;6156109;23;20028;-80
2022/01/15 01:04:10;;;;;;;8.27;4.20;;;6.30;99.90;;;;;;6155223;23;20020;-80
2022/01/15 01:06:36;;;;;;;7.25;4.65;;;6.30;99.90;;;;;;6128765;23;20088;-81
2022/01/15 01:09:01;;;;;;;5.88;3.88;;;6.30;99.90;;;;;;6178337;23;20016;-80
2022/01/15 01:11:43;;;;;;;7.03;4.28;;;6.60;99.90;;;;;;6181582;23;20020;-81
2022/01/15 01:24:30;;;;;;;3.95;2.50;;;6.20;99.90;;;;;;6179989;23;20071;-81
2022/01/15 01:27:07;;;;;;;3.53;2.53;;;6.10;99.90;;;;;;6154919;23;20115;-81
2022/01/15 01:32:26;;;;;;;3.13;2.35;;;6.30;99.90;;;;;;6180151;23;20056;-81
2022/01/15 01:34:51;;;;;;;4.68;2.50;;;6.20;99.90;;;;;;6181244;23;20345;-81
2022/01/15 01:37:31;;;;;;;3.30;2.28;;;6.10;99.90;;;;;;6181381;23;20013;-80
2022/01/15 01:40:15;;;;;;;5.53;2.15;;;6.20;99.90;;;;;;6180288;23;20017;-80
2022/01/15 01:42:50;;;;;;;4.43;2.17;;;6.10;99.90;;;;;;6179960;23;20786;-84
2022/01/15 01:45:17;;;;;;;4.13;2.10;;;6.30;99.90;;;;;;6177752;23;20013;-81
2022/01/15 01:47:43;;;;;;;5.15;2.38;;;6.10;99.90;;;;;;6180537;23;20017;-81
2022/01/15 01:50:16;;;;;;;5.47;2.30;;;6.10;99.90;;;;;;6180869;23;20021;-80
2022/01/15 01:52:45;;;;;;;3.67;2.22;;;6.00;99.90;;;;;;6180973;23;20020;-81
2022/01/15 01:55:11;;;;;;;3.33;1.90;;;6.10;99.90;;;;;;6155233;23;20468;-81
2022/01/15 01:57:38;;;;;;;3.13;2.10;;;6.10;99.90;;;;;;6156955;23;20024;-81
2022/01/15 02:00:06;;;;;;;5.28;2.22;;;6.10;99.90;;;;;;6182295;23;20017;-81
2022/01/15 02:02:32;;;;;;;5.00;2.00;;;6.10;99.90;;;;;;6180378;23;20017;-81
2022/01/15 02:04:58;;;;;;;5.50;1.85;;;6.00;99.90;;;;;;6157156;23;20516;-80
2022/01/15 02:07:26;;;;;;;4.68;2.00;;;6.10;99.90;;;;;;6156955;23;20047;-80
2022/01/15 02:09:52;;;;;;;3.22;1.70;;;6.00;99.90;;;;;;6156691;23;20460;-81
2022/01/15 02:12:18;;;;;;;3.10;1.48;;;6.00;99.90;;;;;;6182185;23;20092;-80
2022/01/15 02:14:44;;;;;;;3.08;1.70;;;6.00;99.90;;;;;;6181757;23;20151;-81
2022/01/15 02:17:12;;;;;;;3.00;1.60;;;6.00;99.90;;;;;;6155556;23;20330;-80
2022/01/15 02:19:46;;;;;;;3.42;1.75;;;6.00;99.90;;;;;;6156612;23;20090;-81
2022/01/15 02:24:55;;;;;;;4.55;1.42;;;6.00;99.90;;;;;;6180655;23;20442;-81
2022/01/15 02:27:21;;;;;;;3.55;1.70;;;6.00;99.90;;;;;;6181207;23;20135;-80
2022/01/15 02:29:47;;;;;;;5.75;1.70;;;5.90;99.90;;;;;;6156867;23;20532;-81
2022/01/15 02:32:12;;;;;;;2.90;1.45;;;6.00;99.90;;;;;;6181121;23;20038;-80
2022/01/15 02:34:38;;;;;;;1.60;1.20;;;5.90;99.90;;;;;;6180529;23;20054;-82
2022/01/15 02:37:03;;;;;;;3.55;1.40;;;6.00;99.90;;;;;;6180564;23;20021;-81
2022/01/15 02:39:29;;;;;;;3.08;1.48;;;6.20;99.90;;;;;;6156133;23;20104;-80
2022/01/15 02:41:55;;;;;;;3.63;1.20;;;6.00;99.90;;;;;;6181516;23;20100;-81
2022/01/15 02:44:20;;;;;;;1.85;1.20;;;6.00;99.90;;;;;;6156478;23;20009;-80
2022/01/15 02:49:16;;;;;;;2.58;1.15;;;6.00;99.90;;;;;;6180586;23;20019;-81
2022/01/15 02:51:42;;;;;;;5.13;1.55;;;6.10;99.90;;;;;;6180805;23;20060;-81
2022/01/15 02:54:08;;;;;;;2.45;1.30;;;6.10;99.90;;;;;;6130059;23;20017;-80
2022/01/15 02:56:37;;;;;;;2.15;1.10;;;6.00;99.90;;;;;;6181146;23;20131;-81
2022/01/15 02:59:05;;;;;;;5.15;1.40;;;6.00;99.90;;;;;;6181746;23;20365;-82
2022/01/15 03:01:31;;;;;;;3.15;1.38;;;6.10;99.90;;;;;;6181871;23;20017;-81
2022/01/15 03:03:57;;;;;;;3.25;1.40;;;6.00;99.90;;;;;;6155989;23;20024;-81
2022/01/15 03:06:23;;;;;;;3.67;1.58;;;6.40;99.90;;;;;;6156336;23;20009;-80
2022/01/15 03:08:50;;;;;;;3.42;1.77;;;6.00;99.90;;;;;;6179945;23;20570;-80
2022/01/15 03:11:16;;;;;;;2.20;1.25;;;6.00;99.90;;;;;;6181093;23;20019;-82
2022/01/15 03:13:43;;;;;;;2.70;1.70;;;6.00;99.90;;;;;;6180614;23;20044;-81
2022/01/15 03:16:13;;;;;;;3.30;1.40;;;6.00;99.90;;;;;;6156052;23;20017;-81
2022/01/15 03:18:39;;;;;;;4.68;2.00;;;6.10;99.90;;;;;;6180380;23;20029;-80
2022/01/15 03:21:05;;;;;;;3.50;1.80;;;6.10;99.90;;;;;;6155564;23;20741;-81
2022/01/15 03:23:31;;;;;;;4.10;2.00;;;6.00;99.90;;;;;;6180846;23;20107;-82
2022/01/15 03:25:57;;;;;;;4.50;1.55;;;6.00;99.90;;;;;;6180023;23;20013;-82
2022/01/15 03:28:22;;;;;;;4.18;1.80;;;6.00;99.90;;;;;;6155837;23;20013;-81
2022/01/15 03:30:49;;;;;;;4.32;1.77;;;6.00;99.90;;;;;;6180259;23;20024;-81
2022/01/15 03:33:15;;;;;;;3.33;1.70;;;6.00;99.90;;;;;;6180349;23;20024;-81
2022/01/15 03:35:40;;;;;;;3.38;1.80;;;5.90;99.90;;;;;;6156476;23;20043;-80
2022/01/15 03:38:07;;;;;;;3.78;1.90;;;6.00;99.90;;;;;;6180526;23;20291;-81
2022/01/15 03:40:33;;;;;;;5.70;2.35;;;5.90;99.90;;;;;;6180125;23;20013;-81
2022/01/15 03:43:00;;;;;;;3.70;2.05;;;6.00;99.90;;;;;;6156039;23;20047;-81
2022/01/15 03:45:25;;;;;;;5.53;2.65;;;6.00;99.90;;;;;;6180048;23;20013;-80
2022/01/15 03:47:52;;;;;;;7.22;2.80;;;6.00;99.90;;;;;;6155289;23;20020;-81
2022/01/15 03:50:18;;;;;;;6.50;3.00;;;6.00;99.90;;;;;;6181381;23;20013;-81
2022/01/15 03:52:44;;;;;;;6.25;2.90;;;6.00;99.90;;;;;;6181357;23;20084;-81
2022/01/15 03:55:11;;;;;;;5.03;2.80;;;6.00;99.90;;;;;;6156173;23;20028;-82
2022/01/15 03:57:38;;;;;;;7.00;3.20;;;6.00;99.90;;;;;;6181086;23;20017;-80
2022/01/15 04:00:17;;;;;;;6.65;3.15;;;6.10;99.90;;;;;;6180865;23;20013;-82
2022/01/15 04:02:43;;;;;;;6.80;3.38;;;6.00;99.90;;;;;;6155490;23;20043;-81
2022/01/15 04:05:10;;;;;;;7.68;3.30;;;5.90;99.90;;;;;;6155839;23;20024;-80
2022/01/15 04:07:36;;;;;;;8.00;3.40;;;5.90;99.90;;;;;;6180789;23;20013;-80
2022/01/15 04:10:05;;;;;;;6.65;3.42;;;6.00;99.90;;;;;;6179897;23;20016;-81
2022/01/15 04:12:30;;;;;;;8.23;3.78;;;5.90;99.90;;;;;;6155769;23;20024;-80
2022/01/15 04:14:56;;;;;;;6.38;3.70;;;5.90;99.90;;;;;;6180481;23;20009;-80
2022/01/15 04:17:22;;;;;;;7.10;3.67;;;6.00;99.90;;;;;;6154299;23;20029;-80
2022/01/15 04:19:48;;;;;;;7.43;3.45;;;6.00;99.90;;;;;;6180271;23;20353;-82
2022/01/15 04:22:13;;;;;;;9.07;3.97;;;6.00;99.90;;;;;;6181176;23;20009;-82
2022/01/15 04:24:39;;;;;;;6.53;3.35;;;6.00;99.90;;;;;;6156941;23;20009;-80
2022/01/15 04:27:05;;;;;;;7.40;3.83;;;6.00;99.90;;;;;;6182668;23;20013;-81
2022/01/15 04:29:33;;;;;;;6.65;3.72;;;6.00;99.90;;;;;;6182443;23;20092;-81
2022/01/15 04:31:59;;;;;;;9.38;3.90;;;6.00;99.90;;;;;;6157316;23;20072;-82
2022/01/15 04:34:29;;;;;;;8.30;3.80;;;6.00;99.90;;;;;;6157300;23;20017;-82
2022/01/15 04:37:01;;;;;;;10.50;3.58;;;6.20;99.90;;;;;;6182255;23;20023;-81
2022/01/15 04:39:27;;;;;;;9.93;4.13;;;6.10;99.90;;;;;;6182558;23;20013;-81
2022/01/15 04:41:53;;;;;;;10.52;4.00;;;6.00;99.90;;;;;;6182112;23;20143;-81
2022/01/15 04:44:19;;;;;;;9.02;4.18;;;5.90;99.90;;;;;;6157289;23;20027;-82
2022/01/15 04:46:44;;;;;;;11.07;4.10;;;6.00;99.90;;;;;;6157306;23;20357;-82
2022/01/15 04:49:10;;;;;;;9.38;4.03;;;6.00;99.90;;;;;;6181741;23;20020;-81
2022/01/15 04:51:36;;;;;;;8.77;4.10;;;6.00;99.90;;;;;;6157537;23;20013;-81
2022/01/15 04:54:03;;;;;;;10.52;4.25;;;5.90;99.90;;;;;;6157214;23;20013;-82
2022/01/15 04:56:29;;;;;;;10.00;4.15;;;6.20;99.90;;;;;;6182321;23;20157;-82
2022/01/15 04:58:55;;;;;;;9.80;4.60;;;5.90;99.90;;;;;;6181906;23;20088;-82
2022/01/15 05:01:21;;;;;;;11.18;4.50;;;6.00;99.90;;;;;;6182782;23;20009;-82
2022/01/15 05:03:46;;;;;;;9.80;4.30;;;5.90;99.90;;;;;;6181990;23;20013;-80
2022/01/15 05:06:12;;;;;;;8.73;4.60;;;5.90;99.90;;;;;;6181677;23;20396;-81
2022/01/15 05:08:40;;;;;;;9.70;5.18;;;6.00;99.90;;;;;;6157846;23;20385;-81
2022/01/15 05:11:27;;;;;;;10.85;4.75;;;5.90;99.90;;;;;;6157259;23;20095;-80
2022/01/15 05:13:53;;;;;;;9.93;4.90;;;6.00;99.90;;;;;;6157854;23;20021;-81
2022/01/15 05:16:18;;;;;;;11.23;4.88;;;6.10;99.90;;;;;;6182795;23;20028;-82
2022/01/15 05:18:44;;;;;;;9.35;4.20;;;6.00;99.90;;;;;;6181873;23;20104;-80
2022/01/15 05:21:09;;;;;;;9.80;4.18;;;6.00;99.90;;;;;;6158253;23;20025;-81
2022/01/15 05:23:53;;;;;;;7.68;4.15;;;5.90;99.90;;;;;;6182242;23;20059;-81
2022/01/15 05:26:19;;;;;;;6.72;4.10;;;5.90;99.90;;;;;;6158091;23;20454;-80
2022/01/15 05:28:45;;;;;;;10.07;4.20;;;5.90;99.90;;;;;;6182677;23;20049;-81
2022/01/15 05:31:13;;;;;;;7.35;4.28;;;5.90;99.90;;;;;;6182732;23;20013;-82
2022/01/15 05:33:38;;;;;;;8.13;4.40;;;6.00;99.90;;;;;;6156903;23;20017;-81
2022/01/15 05:36:07;;;;;;;8.95;4.35;;;6.70;99.90;;;;;;6182022;23;20019;-81
2022/01/15 05:38:33;;;;;;;7.07;4.35;;;5.90;99.90;;;;;;6157359;23;20483;-81
2022/01/15 05:40:58;;;;;;;9.18;4.30;;;5.90;99.90;;;;;;6156255;23;20021;-82
2022/01/15 05:43:24;;;;;;;8.07;4.70;;;6.00;99.90;;;;;;6182164;23;20074;-81
2022/01/15 05:45:49;;;;;;;6.72;4.63;;;5.80;99.90;;;;;;6156788;23;20088;-82
2022/01/15 05:48:16;;;;;;;10.13;4.45;;;5.80;99.90;;;;;;6156117;23;20020;-81
2022/01/15 05:50:41;;;;;;;8.15;4.72;;;5.90;99.90;;;;;;6181608;23;20456;-81
2022/01/15 05:53:07;;;;;;;7.53;4.60;;;6.40;99.90;;;;;;6181974;23;20112;-82
2022/01/15 05:55:33;;;;;;;8.52;4.53;;;5.80;99.90;;;;;;6181092;23;20020;-81
2022/01/15 05:57:58;;;;;;;7.82;4.40;;;5.80;99.90;;;;;;6157183;23;20429;-81
2022/01/15 06:00:24;;;;;;;8.07;4.68;;;5.80;99.90;;;;;;6156812;23;20036;-81
2022/01/15 06:02:50;;;;;;;10.10;4.90;;;5.90;99.90;;;;;;6156136;23;20017;-80
2022/01/15 06:05:16;;;;;;;10.25;4.50;;;6.10;99.90;;;;;;6156867;23;20017;-81
2022/01/15 06:07:41;;;;;;;9.43;4.88;;;5.80;99.90;;;;;;6181801;23;20017;-81
2022/01/15 06:10:08;;;;;;;9.18;4.88;;;5.80;99.90;;;;;;6181060;23;20044;-81
2022/01/15 06:12:42;;;;;;;14.27;5.18;;;5.90;99.90;;;;;;6181313;23;20032;-81
2022/01/15 06:15:08;;;;;;;8.43;4.50;;;5.90;99.90;;;;;;6181349;23;20398;-82
2022/01/15 06:17:33;;;;;;;9.10;4.95;;;5.80;99.90;;;;;;6180979;23;20083;-80
2022/01/15 06:19:59;;;;;;;10.75;5.18;;;5.90;99.90;;;;;;6156616;23;20445;-81
2022/01/15 06:22:25;;;;;;;9.05;4.75;;;6.30;99.90;;;;;;6156451;23;20067;-80
2022/01/15 06:24:50;;;;;;;11.07;5.32;;;5.90;99.90;;;;;;6181202;23;20305;-82
2022/01/15 06:27:19;;;;;;;11.85;4.95;;;5.90;99.90;;;;;;6181733;23;20008;-80
2022/01/15 06:29:45;;;;;;;7.72;4.80;;;5.90;99.90;;;;;;6181842;23;20013;-79
2022/01/15 06:32:11;;;;;;;10.13;5.47;;;5.90;99.90;;;;;;6180582;23;20021;-81
2022/01/15 06:34:38;;;;;;;8.02;4.65;;;5.90;99.90;;;;;;6156217;23;20318;-79
2022/01/15 06:37:04;;;;;;;9.40;5.18;;;5.90;99.90;;;;;;6181614;23;20021;-79
2022/01/15 06:39:32;;;;;;;11.02;5.15;;;6.00;99.90;;;;;;6156474;23;20088;-80
2022/01/15 06:41:57;;;;;;;9.63;5.35;;;5.90;99.90;;;;;;6157050;23;20095;-81
2022/01/15 06:44:23;;;;;;;8.13;5.20;;;5.90;99.90;;;;;;6180985;23;20768;-79
2022/01/15 06:46:59;;;;;;;7.65;5.05;;;6.10;99.90;;;;;;6180496;23;20337;-80
2022/01/15 06:49:25;;;;;;;10.15;4.85;;;5.80;99.90;;;;;;6154178;23;20013;-81
2022/01/15 06:51:51;;;;;;;9.02;5.03;;;5.90;99.90;;;;;;6155206;23;20013;-81
2022/01/15 06:54:16;;;;;;;10.43;5.18;;;5.80;99.90;;;;;;6179518;23;20094;-81
2022/01/15 06:56:42;;;;;;;11.23;5.10;;;5.90;99.90;;;;;;6155115;23;20017;-80
2022/01/15 06:59:08;;;;;;;13.18;6.18;;;5.80;99.90;;;;;;6155324;23;20108;-80
2022/01/15 07:01:33;;;;;;;10.27;5.75;;;5.80;99.90;;;;;;6154854;23;20115;-79
2022/01/15 07:03:59;;;;;;;12.02;5.15;;;5.80;99.90;;;;;;6179964;23;20017;-79
2022/01/15 07:06:24;;;;;;;7.13;3.95;;;5.80;99.90;;;;;;6180044;23;20012;-79
2022/01/15 07:08:50;;;;;;;6.57;4.10;;;5.70;99.90;;;;;;6182225;23;20040;-79
2022/01/15 07:11:16;;;;;;;6.45;3.78;;;6.40;99.90;;;;;;6156169;23;20017;-78
2022/01/15 07:13:41;;;;;;;6.75;3.60;;;5.80;99.90;;;;;;6156096;23;20025;-79
2022/01/15 07:16:07;;;;;;;4.35;2.70;;;5.70;99.90;;;;;;6181097;23;20013;-79
2022/01/15 07:18:33;;;;;;;7.03;3.15;;;5.70;99.90;;;;;;6155209;23;20437;-78
2022/01/15 07:20:59;;;;;;;6.57;3.00;;;5.70;99.90;;;;;;6180727;23;20021;-79
2022/01/15 07:23:24;;;;;;;4.05;3.00;;;5.70;99.90;;;;;;6156293;23;20017;-78
2022/01/15 07:25:50;;;;;;;5.47;3.17;;;5.70;99.90;;;;;;6180763;23;20012;-77
2022/01/15 07:28:18;;;;;;;5.90;3.17;;;5.70;99.90;;;;;;6156469;23;20067;-77
2022/01/15 07:30:44;;;;;;;7.70;3.10;;;5.70;99.90;;;;;;6156424;23;20103;-77
2022/01/15 07:33:10;;;;;;;5.93;3.10;;;5.70;99.90;;;;;;6182708;23;20024;-77
2022/01/15 07:35:35;;;;;;;8.32;3.00;;;5.70;99.90;;;;;;6156617;23;20021;-78
2022/01/15 07:38:01;;;;;;;7.20;3.75;;;5.70;99.90;;;;;;6181211;23;20016;-78
2022/01/15 07:40:27;;;;;;;6.35;3.15;;;5.60;99.90;;;;;;6180934;23;20453;-77
2022/01/15 07:42:52;;;;;;;9.07;3.95;;;5.60;99.90;;;;;;6180177;23;20136;-79
2022/01/15 07:45:18;;;;;;;5.75;3.70;;;5.60;99.90;;;;;;6180283;23;20027;-80
2022/01/15 07:47:44;;;;;;;6.38;4.18;;;5.60;99.90;;;;;;6155650;23;20127;-79
2022/01/15 07:50:14;;;;;;;9.02;4.20;;;5.50;99.90;;;;;;6156107;23;20017;-78
2022/01/15 07:52:39;;;;;;;6.63;4.13;;;5.60;99.90;;;;;;6155660;23;20019;-78
2022/01/15 07:55:06;;;;;;;6.90;4.03;;;5.80;99.90;;;;;;6180315;23;20099;-79
2022/01/15 07:57:31;;;;;;;7.70;4.28;;;5.60;99.90;;;;;;6155622;23;20445;-79
2022/01/15 07:59:57;;;;;;;9.05;4.25;;;5.70;99.90;;;;;;6155006;23;20035;-79
2022/01/15 08:02:23;;;;;;;7.88;4.65;;;5.70;99.90;;;;;;6178886;23;20017;-78
2022/01/15 08:04:48;;;;;;;6.95;4.10;;;5.60;99.90;;;;;;6155462;23;20017;-77
2022/01/15 08:07:14;;;;;;;8.23;4.88;;;5.70;99.90;;;;;;6181013;23;20005;-78
2022/01/15 08:09:40;;;;;;;8.45;4.80;;;5.70;99.90;;;;;;6154788;23;20385;-77
2022/01/15 08:12:06;;;;;;;10.73;5.28;;;5.80;99.90;;;;;;6179750;23;20030;-77
2022/01/15 08:14:32;;;;;;;9.68;5.10;;;5.70;99.90;;;;;;6180272;23;20020;-78
2022/01/15 08:16:58;;;;;;;8.65;5.30;;;5.70;99.90;;;;;;6178860;23;20314;-78
2022/01/15 08:19:23;;;;;;;8.55;4.93;;;5.70;99.90;;;;;;6178611;23;20092;-78
2022/01/15 08:21:49;;;;;;;10.55;4.95;;;5.70;99.90;;;;;;6154451;23;20390;-78
2022/01/15 08:24:15;;;;;;;8.32;5.10;;;5.70;99.90;;;;;;6154799;23;20139;-80
2022/01/15 08:26:41;;;;;;;8.38;5.03;;;5.80;99.90;;;;;;6180541;23;20009;-78
2022/01/15 08:29:07;;;;;;;11.40;5.22;;;5.90;99.90;;;;;;6180262;23;20394;-78
2022/01/15 08:31:32;;;;;;;9.55;5.22;;;5.80;99.90;;;;;;6181032;23;20013;-78
2022/01/15 08:33:58;;;;;;;9.00;4.75;;;5.70;99.90;;;;;;6180442;23;20027;-78
2022/01/15 08:36:24;;;;;;;9.68;5.38;;;5.90;99.90;;;;;;6156285;23;20434;-77
2022/01/15 08:38:50;;;;;;;9.43;5.18;;;5.80;99.90;;;;;;6180323;23;20087;-77
2022/01/15 08:41:16;;;;;;;8.13;4.75;;;5.80;99.90;;;;;;6156485;23;20321;-77
2022/01/15 08:43:42;;;;;;;9.95;5.45;;;5.90;99.90;;;;;;6156164;23;20048;-79
2022/01/15 08:46:09;;;;;;;10.90;5.63;;;5.80;99.90;;;;;;6181827;23;20016;-81
2022/01/15 08:48:35;;;;;;;9.55;5.30;;;5.80;99.90;;;;;;6181815;23;20016;-78
2022/01/15 08:51:01;;;;;;;9.73;5.25;;;5.80;99.90;;;;;;6182029;23;20013;-78
2022/01/15 08:53:26;;;;;;;11.50;6.15;;;5.80;99.90;;;;;;6181062;23;20028;-79
2022/01/15 08:55:53;;;;;;;10.75;5.45;;;5.80;99.90;;;;;;6156631;23;20017;-77
2022/01/15 08:58:19;;;;;;;9.85;4.95;;;5.70;99.90;;;;;;6181537;23;20017;-76
2022/01/15 09:00:47;;;;;;;11.25;5.35;;;5.80;99.90;;;;;;6183155;23;20012;-81
2022/01/15 09:03:14;;;;;;;8.90;4.50;;;5.80;99.90;;;;;;6181163;23;20013;-79
2022/01/15 09:05:42;;;;;;;8.10;4.32;;;5.70;99.90;;;;;;6156099;23;20020;-79
2022/01/15 09:08:09;;;;;;;11.40;2.30;;;5.70;99.90;;;;;;6157017;23;20017;-78
2022/01/15 09:11:02;;;;;;;6.40;3.85;;;6.00;99.90;;;;;;6182555;23;20009;-84
2022/01/15 09:13:31;;;;;;;6.90;3.85;;;5.80;99.90;;;;;;6099510;23;20128;-83
2022/01/15 09:16:02;;;;;;;5.75;3.97;;;6.00;99.90;;;;;;6074922;23;20562;-83
2022/01/15 09:18:40;;;;;;;6.68;3.63;;;6.50;99.90;;;;;;6073782;23;20022;-83
2022/01/15 09:21:08;;;;;;;7.22;3.47;;;6.00;99.90;;;;;;6075095;23;20192;-81
2022/01/15 09:23:34;;;;;;;8.57;3.60;;;5.80;99.90;;;;;;6123537;23;20013;-81
2022/01/15 09:26:00;;;;;;;5.57;3.38;;;6.20;99.90;;;;;;6123302;23;20181;-82
2022/01/15 09:31:11;;;;;;;5.13;2.67;;;5.70;99.90;;;;;;6123871;23;20061;-83
2022/01/15 09:33:36;;;;;;;4.32;2.63;;;5.80;99.90;;;;;;6123736;23;20461;-80
2022/01/15 09:36:03;;;;;;;5.15;3.20;;;5.70;99.90;;;;;;6074281;23;20168;-79
2022/01/15 09:38:30;;;;;;;6.78;3.83;;;5.70;99.90;;;;;;6074719;23;20112;-80
2022/01/15 09:40:56;;;;;;;6.63;3.97;;;5.90;99.90;;;;;;6121919;23;20018;-80
2022/01/15 09:43:23;;;;;;;8.27;3.72;;;5.80;99.90;;;;;;6125310;23;20133;-81
2022/01/15 09:45:48;;;;;;;6.35;4.10;;;5.80;99.90;;;;;;6158489;23;20021;-80
2022/01/15 09:48:16;;;;;;;7.65;4.40;;;5.70;99.90;;;;;;6183121;23;20398;-81
2022/01/15 09:50:44;;;;;;;8.90;5.45;;;5.80;99.90;;;;;;6158405;23;20013;-80
2022/01/15 09:53:11;;;;;;;11.30;5.90;;;5.90;99.90;;;;;;6183384;23;20100;-81
2022/01/15 09:55:37;;;;;;;14.38;6.13;;;5.70;99.90;;;;;;6183425;23;20158;-80
2022/01/15 09:58:06;;;;;;;11.02;5.60;;;5.80;99.90;;;;;;6158441;23;20605;-81
2022/01/15 10:00:31;;;;;;;13.98;6.47;;;5.80;99.90;;;;;;6158187;23;20021;-81
2022/01/15 10:03:00;;;;;;;11.48;7.00;;;5.80;99.90;;;;;;6150390;23;20017;-81
2022/01/15 10:05:25;;;;;;;12.27;7.35;;;5.70;99.90;;;;;;6103282;23;20057;-80
2022/01/15 10:07:58;;;;;;;13.73;8.40;;;5.80;99.90;;;;;;6150820;23;20096;-79
2022/01/15 10:10:26;;;;;;;16.13;8.93;;;5.70;99.90;;;;;;6150748;23;20014;-78
2022/01/15 10:12:52;;;;;;;15.23;8.57;;;5.80;99.90;;;;;;6151109;23;20022;-78
2022/01/15 10:15:18;;;;;;;15.77;8.93;;;5.80;99.90;;;;;;6150837;23;20040;-80
2022/01/15 10:17:44;;;;;;;17.65;8.30;;;5.80;99.90;;;;;;6150803;23;20405;-78
2022/01/15 10:20:38;;;;;;;16.70;9.40;;;5.90;99.90;;;;;;6151171;23;20049;-82
2022/01/15 10:23:43;;;;;;;16.73;9.57;;;5.80;99.90;;;;;;6151155;23;20017;-81
2022/01/15 10:26:54;;;;;;;14.75;10.00;;;5.90;99.90;;;;;;6015299;23;20143;-83
2022/01/15 10:33:10;;;;;;;17.08;9.75;;;6.70;99.90;;;;;;6035529;23;20030;-82
2022/01/15 10:35:47;;;;;;;17.92;9.57;;;5.40;99.90;;;;;;6013417;23;20030;-83
2022/01/15 10:42:42;;;;;;;16.83;9.77;;;5.80;99.90;;;;;;5948176;24;20482;-82
2022/01/15 10:45:39;;;;;;;;;;;;;;;;;;;;;
2022/01/15 10:48:40;;;;;;;16.65;9.27;;;5.90;99.90;;;;;;5872558;24;20005;-83
2022/01/15 10:51:13;;;;;;;17.17;10.57;;;5.80;99.90;;;;;;5849344;24;20040;-82
2022/01/15 10:53:47;;;;;;;21.25;11.23;;;5.90;99.90;;;;;;5873468;24;20052;-82
2022/01/15 10:56:38;;;;;;;19.88;11.45;;;6.70;99.90;;;;;;5887171;24;20010;-83
2022/01/15 10:59:45;;;;;;;18.35;10.05;;;6.00;99.90;;;;;;5899521;24;20017;-82
2022/01/15 11:02:50;;;;;;;20.90;10.95;;;6.00;99.90;;;;;;5922263;24;20021;-81
2022/01/15 11:05:34;;;;;;;19.67;10.07;;;6.00;99.90;;;;;;5923214;24;20628;-82
2022/01/15 11:08:18;;;;;;;21.42;11.00;;;5.70;99.90;;;;;;5878171;23;20024;-82
2022/01/15 11:10:59;;;;;;;20.55;10.68;;;5.90;99.90;;;;;;5870785;24;20067;-83
2022/01/15 11:13:42;;;;;;;18.45;10.52;;;6.00;99.90;;;;;;5824221;24;20018;-83
2022/01/15 11:16:23;;;;;;;19.73;11.15;;;5.90;99.90;;;;;;5864720;24;20021;-82
2022/01/15 11:19:19;;;;;;;20.58;10.60;;;6.00;99.90;;;;;;5933964;24;20024;-83
2022/01/15 11:21:45;;;;;;;21.50;10.52;;;6.00;99.90;;;;;;6019757;23;20104;-82
2022/01/15 11:24:23;;;;;;;19.80;10.90;;;6.00;99.90;;;;;;6125851;23;20032;-82
2022/01/15 11:26:58;;;;;;;21.20;11.68;;;5.90;99.90;;;;;;6126801;23;20039;-84
2022/01/15 11:30:47;;;;;;;22.33;11.23;;;6.00;99.90;;;;;;6127149;23;20346;-82
2022/01/15 11:33:30;;;;;;;24.40;12.68;;;5.30;99.90;;;;;;5986140;23;20018;-83
2022/01/15 11:36:03;;;;;;;22.60;11.73;;;5.50;99.90;;;;;;6034693;23;20026;-83
2022/01/15 11:38:40;;;;;;;25.20;13.80;;;5.80;99.90;;;;;;6010943;23;20026;-78
2022/01/15 11:41:26;;;;;;;24.05;12.23;;;6.80;99.90;;;;;;6010406;23;20153;-78
2022/01/15 11:43:59;;;;;;;21.27;11.65;;;5.90;99.90;;;;;;6035353;23;20012;-79
2022/01/15 11:46:32;;;;;;;23.63;12.85;;;6.00;99.90;;;;;;6011294;23;20015;-78
2022/01/15 11:49:34;;;;;;;26.15;13.80;;;6.00;99.90;;;;;;6081639;23;20066;-78
2022/01/15 11:52:06;;;;;;;26.75;14.93;;;6.00;99.90;;;;;;6039064;23;20015;-80
2022/01/15 11:54:33;;;;;;;39.10;14.80;;;6.00;99.90;;;;;;6037788;23;20106;-82
2022/01/15 11:57:02;;;;;;;26.90;13.93;;;5.90;99.90;;;;;;6038562;23;20109;-79
2022/01/15 11:59:47;;;;;;;29.05;15.73;;;5.90;99.90;;;;;;6062538;23;20019;-79
2022/01/15 12:02:31;;;;;;;26.65;14.55;;;5.90;99.90;;;;;;6019122;23;20101;-78
2022/01/15 12:05:14;;;;;;;30.30;15.90;;;5.80;99.90;;;;;;6096691;23;20032;-78
2022/01/15 12:07:41;;;;;;;30.95;16.85;;;5.80;99.90;;;;;;6095704;23;20403;-78
2022/01/15 12:10:13;;;;;;;33.22;17.25;;;5.80;99.90;;;;;;6094620;23;20386;-80
2022/01/15 12:12:47;;;;;;;31.85;17.08;;;5.90;99.90;;;;;;6094226;23;20100;-78
2022/01/15 12:15:17;;;;;;;30.23;16.50;;;5.80;99.90;;;;;;6094509;23;20021;-81
2022/01/15 12:17:44;;;;;;;28.77;16.52;;;5.80;99.90;;;;;;6094281;23;20018;-80
2022/01/15 12:20:20;;;;;;;29.23;16.92;;;6.00;99.90;;;;;;6094573;23;20093;-79
2022/01/15 12:22:50;;;;;;;31.52;17.17;;;5.90;99.90;;;;;;6095216;23;20080;-78
2022/01/15 12:25:19;;;;;;;25.58;15.10;;;5.80;99.90;;;;;;6094962;23;20014;-79
2022/01/15 12:28:04;;;;;;;22.73;13.82;;;5.90;99.90;;;;;;6132763;23;20013;-78
2022/01/15 12:30:34;;;;;;;20.05;13.75;;;5.90;99.90;;;;;;6183385;23;20025;-80
2022/01/15 12:33:04;;;;;;;20.42;12.90;;;5.80;99.90;;;;;;6155424;23;20021;-81
2022/01/15 12:35:38;;;;;;;19.13;12.45;;;5.80;99.90;;;;;;6155929;23;20396;-81
2022/01/15 12:38:33;;;;;;;23.98;14.02;;;5.80;99.90;;;;;;6132849;23;20024;-80
2022/01/15 12:41:30;;;;;;;20.95;13.52;;;5.80;99.90;;;;;;6111855;23;20052;-81
2022/01/15 12:43:58;;;;;;;20.48;13.02;;;5.70;99.90;;;;;;6133754;23;20049;-82
2022/01/15 12:46:24;;;;;;;22.35;13.55;;;5.60;99.90;;;;;;6134315;23;20017;-80
2022/01/15 12:49:02;;;;;;;21.67;14.70;;;6.40;99.90;;;;;;6158496;23;20295;-81
2022/01/15 12:51:28;;;;;;;22.55;14.93;;;5.60;99.90;;;;;;6134120;23;20449;-80
2022/01/15 12:54:04;;;;;;;22.17;13.80;;;5.70;99.90;;;;;;6133976;23;20154;-80
2022/01/15 12:56:42;;;;;;;24.85;15.15;;;5.90;99.90;;;;;;6133026;23;20360;-81
2022/01/15 12:59:48;;;;;;;24.15;15.30;;;5.70;99.90;;;;;;6133959;23;20059;-81
2022/01/15 13:03:05;;;;;;;26.52;15.38;;;5.50;99.90;;;;;;6061895;23;20494;-81
2022/01/15 13:05:38;;;;;;;24.85;17.00;;;5.70;99.90;;;;;;5988394;23;20050;-84
2022/01/15 13:08:07;;;;;;;25.25;16.20;;;5.60;99.90;;;;;;6034573;23;20050;-82
2022/01/15 13:10:52;;;;;;;30.98;17.92;;;6.20;99.90;;;;;;6010988;23;20023;-82
2022/01/15 13:13:19;;;;;;;28.90;18.08;;;5.60;99.90;;;;;;6011366;23;20106;-78
2022/01/15 13:15:45;;;;;;;29.85;18.63;;;5.60;99.90;;;;;;6011669;23;20019;-79
2022/01/15 13:18:16;;;;;;;32.95;18.88;;;5.60;99.90;;;;;;6011246;23;20811;-80
2022/01/15 13:20:47;;;;;;;29.40;18.40;;;5.70;99.90;;;;;;6011973;23;20098;-78
2022/01/15 13:23:13;;;;;;;31.13;18.60;;;5.60;99.90;;;;;;6012041;23;20015;-79
2022/01/15 13:25:39;;;;;;;30.23;17.45;;;5.70;99.90;;;;;;5988039;23;20015;-79
2022/01/15 13:28:05;;;;;;;31.95;19.50;;;5.60;99.90;;;;;;6035985;23;20150;-77
2022/01/15 13:30:32;;;;;;;31.05;18.25;;;5.60;99.90;;;;;;6035655;23;20415;-77
2022/01/15 13:33:02;;;;;;;29.63;18.27;;;5.50;99.90;;;;;;6094943;23;20096;-80
2022/01/15 13:35:36;;;;;;;30.40;17.98;;;5.60;99.90;;;;;;6156016;23;20017;-81
2022/01/15 13:38:08;;;;;;;30.65;17.83;;;5.60;99.90;;;;;;6132181;23;20020;-80